sensor_id;sensor_type;location;lat;lon;timestamp;temperature;humidity
9175;DHT22;54374;50.196;8.050;2022-08-21T00:01:04;11.60;99.90
9175;DHT22;54374;50.196;8.050;2022-08-21T00:03:32;11.60;99.90
9175;DHT22;54374;50.196;8.050;2022-08-21T00:05:59;11.60;99.90
9175;DHT22;54374;50.196;8.050;2022-08-21T00:08:29;11.70;99.90
9175;DHT22;54374;50.196;8.050;2022-08-21T00:10:56;11.70;99.90
9175;DHT22;54374;50.196;8.050;2022-08-21T00:13:23;11.60;99.90
9175;DHT22;54374;50.196;8.050;2022-08-21T00:15:51;11.50;99.90
9175;DHT22;54374;50.196;8.050;2022-08-21T00:18:18;11.50;99.90
9175;DHT22;54374;50.196;8.050;2022-08-21T00:20:46;11.50;99.90
9175;DHT22;54374;50.196;8.050;2022-08-21T00:23:14;11.30;99.90
9175;DHT22;54374;50.196;8.050;2022-08-21T00:25:42;11.20;99.90
9175;DHT22;54374;50.196;8.050;2022-08-21T00:28:10;11.20;99.90
9175;DHT22;54374;50.196;8.050;2022-08-21T00:30:37;11.20;99.90
9175;DHT22;54374;50.196;8.050;2022-08-21T00:33:06;11.30;99.90
9175;DHT22;54374;50.196;8.050;2022-08-21T00:35:37;11.30;99.90
9175;DHT22;54374;50.196;8.050;2022-08-21T00:38:06;11.20;99.90
9175;DHT22;54374;50.196;8.050;2022-08-21T00:40:36;11.20;99.90
9175;DHT22;54374;50.196;8.050;2022-08-21T00:43:05;11.20;99.90
9175;DHT22;54374;50.196;8.050;2022-08-21T00:45:32;11.30;99.90
9175;DHT22;54374;50.196;8.050;2022-08-21T00:48:00;11.30;99.90
9175;DHT22;54374;50.196;8.050;2022-08-21T00:50:32;11.30;99.90
9175;DHT22;54374;50.196;8.050;2022-08-21T00:53:02;11.30;99.90
9175;DHT22;54374;50.196;8.050;2022-08-21T00:55:30;11.30;99.90
9175;DHT22;54374;50.196;8.050;2022-08-21T00:57:59;11.30;99.90
9175;DHT22;54374;50.196;8.050;2022-08-21T01:00:30;11.20;99.90
9175;DHT22;54374;50.196;8.050;2022-08-21T01:03:00;11.20;99.90
9175;DHT22;54374;50.196;8.050;2022-08-21T01:05:29;11.10;99.90
9175;DHT22;54374;50.196;8.050;2022-08-21T01:07:56;11.00;99.90
9175;DHT22;54374;50.196;8.050;2022-08-21T01:10:23;11.00;99.90
9175;DHT22;54374;50.196;8.050;2022-08-21T01:12:51;11.00;99.90
9175;DHT22;54374;50.196;8.050;2022-08-21T01:15:19;11.10;99.90
9175;DHT22;54374;50.196;8.050;2022-08-21T01:17:47;11.20;99.90
9175;DHT22;54374;50.196;8.050;2022-08-21T01:20:15;11.10;99.90
9175;DHT22;54374;50.196;8.050;2022-08-21T01:22:44;11.00;99.90
9175;DHT22;54374;50.196;8.050;2022-08-21T01:25:17;11.00;99.90
9175;DHT22;54374;50.196;8.050;2022-08-21T01:27:45;10.90;99.90
9175;DHT22;54374;50.196;8.050;2022-08-21T01:30:16;10.80;99.90
9175;DHT22;54374;50.196;8.050;2022-08-21T01:32:43;10.80;99.90
9175;DHT22;54374;50.196;8.050;2022-08-21T01:35:12;10.70;99.90
9175;DHT22;54374;50.196;8.050;2022-08-21T01:37:39;10.70;99.90
9175;DHT22;54374;50.196;8.050;2022-08-21T01:40:09;10.60;99.90
9175;DHT22;54374;50.196;8.050;2022-08-21T01:42:37;10.70;99.90
9175;DHT22;54374;50.196;8.050;2022-08-21T01:45:06;10.70;99.90
9175;DHT22;54374;50.196;8.050;2022-08-21T01:47:34;10.60;99.90
9175;DHT22;54374;50.196;8.050;2022-08-21T01:50:03;10.60;99.90
9175;DHT22;54374;50.196;8.050;2022-08-21T01:52:31;10.60;99.90
9175;DHT22;54374;50.196;8.050;2022-08-21T01:54:58;10.50;99.90
9175;DHT22;54374;50.196;8.050;2022-08-21T01:57:26;10.40;99.90
9175;DHT22;54374;50.196;8.050;2022-08-21T01:59:53;10.40;99.90
9175;DHT22;54374;50.196;8.050;2022-08-21T02:02:20;10.40;99.90
9175;DHT22;54374;50.196;8.050;2022-08-21T02:04:48;10.30;99.90
9175;DHT22;54374;50.196;8.050;2022-08-21T02:07:15;10.30;99.90
9175;DHT22;54374;50.196;8.050;2022-08-21T02:09:42;10.20;99.90
9175;DHT22;54374;50.196;8.050;2022-08-21T02:12:10;10.20;99.90
9175;DHT22;54374;50.196;8.050;2022-08-21T02:14:39;10.20;99.90
9175;DHT22;54374;50.196;8.050;2022-08-21T02:17:06;10.20;99.90
9175;DHT22;54374;50.196;8.050;2022-08-21T02:19:33;10.30;99.90
9175;DHT22;54374;50.196;8.050;2022-08-21T02:22:00;10.40;99.90
9175;DHT22;54374;50.196;8.050;2022-08-21T02:24:28;10.40;99.90
9175;DHT22;54374;50.196;8.050;2022-08-21T02:26:55;10.30;99.90
9175;DHT22;54374;50.196;8.050;2022-08-21T02:29:22;10.20;99.90
9175;DHT22;54374;50.196;8.050;2022-08-21T02:31:50;10.10;99.90
9175;DHT22;54374;50.196;8.050;2022-08-21T02:34:17;10.10;99.90
9175;DHT22;54374;50.196;8.050;2022-08-21T02:36:44;10.00;99.90
9175;DHT22;54374;50.196;8.050;2022-08-21T02:39:11;10.10;99.90
9175;DHT22;54374;50.196;8.050;2022-08-21T02:41:38;10.10;99.90
9175;DHT22;54374;50.196;8.050;2022-08-21T02:44:05;10.10;99.90
9175;DHT22;54374;50.196;8.050;2022-08-21T02:46:32;10.10;99.90
9175;DHT22;54374;50.196;8.050;2022-08-21T02:49:01;10.10;99.90
9175;DHT22;54374;50.196;8.050;2022-08-21T02:51:28;10.00;99.90
9175;DHT22;54374;50.196;8.050;2022-08-21T02:54:20;10.20;99.90
9175;DHT22;54374;50.196;8.050;2022-08-21T02:56:47;10.10;99.90
9175;DHT22;54374;50.196;8.050;2022-08-21T02:59:15;10.20;99.90
9175;DHT22;54374;50.196;8.050;2022-08-21T03:01:42;10.10;99.90
9175;DHT22;54374;50.196;8.050;2022-08-21T03:04:11;10.00;99.90
9175;DHT22;54374;50.196;8.050;2022-08-21T03:06:38;10.00;99.90
9175;DHT22;54374;50.196;8.050;2022-08-21T03:09:04;10.00;99.90
9175;DHT22;54374;50.196;8.050;2022-08-21T03:11:31;9.90;99.90
9175;DHT22;54374;50.196;8.050;2022-08-21T03:13:58;9.80;99.90
9175;DHT22;54374;50.196;8.050;2022-08-21T03:16:27;9.80;99.90
9175;DHT22;54374;50.196;8.050;2022-08-21T03:18:54;9.80;99.90
9175;DHT22;54374;50.196;8.050;2022-08-21T03:21:22;9.80;99.90
9175;DHT22;54374;50.196;8.050;2022-08-21T03:23:49;9.80;99.90
9175;DHT22;54374;50.196;8.050;2022-08-21T03:26:16;9.80;99.90
9175;DHT22;54374;50.196;8.050;2022-08-21T03:28:43;9.80;99.90
9175;DHT22;54374;50.196;8.050;2022-08-21T03:31:10;9.70;99.90
9175;DHT22;54374;50.196;8.050;2022-08-21T03:33:37;9.80;99.90
9175;DHT22;54374;50.196;8.050;2022-08-21T03:36:05;9.80;99.90
9175;DHT22;54374;50.196;8.050;2022-08-21T03:38:35;9.80;99.90
9175;DHT22;54374;50.196;8.050;2022-08-21T03:41:03;9.80;99.90
9175;DHT22;54374;50.196;8.050;2022-08-21T03:43:31;9.80;99.90
9175;DHT22;54374;50.196;8.050;2022-08-21T03:46:00;9.80;99.90
9175;DHT22;54374;50.196;8.050;2022-08-21T03:48:27;9.80;99.90
9175;DHT22;54374;50.196;8.050;2022-08-21T03:50:55;9.80;99.90
9175;DHT22;54374;50.196;8.050;2022-08-21T03:53:22;9.70;99.90
9175;DHT22;54374;50.196;8.050;2022-08-21T03:55:51;9.70;99.90
9175;DHT22;54374;50.196;8.050;2022-08-21T03:58:20;9.70;99.90
9175;DHT22;54374;50.196;8.050;2022-08-21T04:00:50;9.70;99.90
9175;DHT22;54374;50.196;8.050;2022-08-21T04:03:18;9.60;99.90
9175;DHT22;54374;50.196;8.050;2022-08-21T04:05:46;9.70;99.90
9175;DHT22;54374;50.196;8.050;2022-08-21T04:08:15;9.70;99.90
9175;DHT22;54374;50.196;8.050;2022-08-21T04:10:46;9.70;99.90
9175;DHT22;54374;50.196;8.050;2022-08-21T04:13:14;9.60;99.90
9175;DHT22;54374;50.196;8.050;2022-08-21T04:15:42;9.60;99.90
9175;DHT22;54374;50.196;8.050;2022-08-21T04:18:09;9.50;99.90
9175;DHT22;54374;50.196;8.050;2022-08-21T04:20:36;9.60;99.90
9175;DHT22;54374;50.196;8.050;2022-08-21T04:23:03;9.50;99.90
9175;DHT22;54374;50.196;8.050;2022-08-21T04:25:30;9.50;99.90
9175;DHT22;54374;50.196;8.050;2022-08-21T04:27:57;9.70;99.90
9175;DHT22;54374;50.196;8.050;2022-08-21T04:30:26;9.70;99.90
9175;DHT22;54374;50.196;8.050;2022-08-21T04:32:53;9.60;99.90
9175;DHT22;54374;50.196;8.050;2022-08-21T04:35:21;9.60;99.90
9175;DHT22;54374;50.196;8.050;2022-08-21T04:37:48;9.60;99.90
9175;DHT22;54374;50.196;8.050;2022-08-21T04:40:18;9.60;99.90
9175;DHT22;54374;50.196;8.050;2022-08-21T04:42:47;9.60;99.90
9175;DHT22;54374;50.196;8.050;2022-08-21T04:45:20;9.70;99.90
9175;DHT22;54374;50.196;8.050;2022-08-21T04:47:55;9.70;99.90
9175;DHT22;54374;50.196;8.050;2022-08-21T04:50:25;9.70;99.90
9175;DHT22;54374;50.196;8.050;2022-08-21T04:53:03;9.70;99.90
9175;DHT22;54374;50.196;8.050;2022-08-21T04:55:30;9.60;99.90
9175;DHT22;54374;50.196;8.050;2022-08-21T04:57:58;9.60;99.90
9175;DHT22;54374;50.196;8.050;2022-08-21T05:00:27;9.60;99.90
9175;DHT22;54374;50.196;8.050;2022-08-21T05:02:56;9.60;99.90
9175;DHT22;54374;50.196;8.050;2022-08-21T05:05:24;9.60;99.90
9175;DHT22;54374;50.196;8.050;2022-08-21T05:07:52;9.60;99.90
9175;DHT22;54374;50.196;8.050;2022-08-21T05:10:20;9.60;99.90
9175;DHT22;54374;50.196;8.050;2022-08-21T05:12:47;9.70;99.90
9175;DHT22;54374;50.196;8.050;2022-08-21T05:15:15;9.80;99.90
9175;DHT22;54374;50.196;8.050;2022-08-21T05:17:43;9.80;99.90
9175;DHT22;54374;50.196;8.050;2022-08-21T05:20:12;9.90;99.90
9175;DHT22;54374;50.196;8.050;2022-08-21T05:22:40;10.00;99.90
9175;DHT22;54374;50.196;8.050;2022-08-21T05:25:09;10.10;99.90
9175;DHT22;54374;50.196;8.050;2022-08-21T05:27:36;10.30;99.90
9175;DHT22;54374;50.196;8.050;2022-08-21T05:30:05;10.40;99.90
9175;DHT22;54374;50.196;8.050;2022-08-21T05:32:33;10.50;99.90
9175;DHT22;54374;50.196;8.050;2022-08-21T05:35:00;10.60;99.90
9175;DHT22;54374;50.196;8.050;2022-08-21T05:37:30;10.70;99.90
9175;DHT22;54374;50.196;8.050;2022-08-21T05:39:58;10.80;99.90
9175;DHT22;54374;50.196;8.050;2022-08-21T05:42:25;11.00;99.90
9175;DHT22;54374;50.196;8.050;2022-08-21T05:44:53;11.10;99.90
9175;DHT22;54374;50.196;8.050;2022-08-21T05:47:20;11.20;99.90
9175;DHT22;54374;50.196;8.050;2022-08-21T05:49:47;11.30;99.90
9175;DHT22;54374;50.196;8.050;2022-08-21T05:52:18;11.50;99.90
9175;DHT22;54374;50.196;8.050;2022-08-21T05:54:47;11.60;99.90
9175;DHT22;54374;50.196;8.050;2022-08-21T05:57:15;11.70;99.90
9175;DHT22;54374;50.196;8.050;2022-08-21T05:59:42;11.80;99.90
9175;DHT22;54374;50.196;8.050;2022-08-21T06:02:09;11.90;99.90
9175;DHT22;54374;50.196;8.050;2022-08-21T06:04:38;12.00;99.90
9175;DHT22;54374;50.196;8.050;2022-08-21T06:07:06;12.20;99.90
9175;DHT22;54374;50.196;8.050;2022-08-21T06:09:34;12.20;99.90
9175;DHT22;54374;50.196;8.050;2022-08-21T06:12:05;12.20;99.90
9175;DHT22;54374;50.196;8.050;2022-08-21T06:14:34;12.40;99.90
9175;DHT22;54374;50.196;8.050;2022-08-21T06:17:02;12.50;99.90
9175;DHT22;54374;50.196;8.050;2022-08-21T06:19:29;12.70;99.90
9175;DHT22;54374;50.196;8.050;2022-08-21T06:21:56;12.80;99.90
9175;DHT22;54374;50.196;8.050;2022-08-21T06:24:24;12.90;99.90
9175;DHT22;54374;50.196;8.050;2022-08-21T06:26:51;13.10;99.90
9175;DHT22;54374;50.196;8.050;2022-08-21T06:29:20;13.20;99.90
9175;DHT22;54374;50.196;8.050;2022-08-21T06:31:48;13.30;99.90
9175;DHT22;54374;50.196;8.050;2022-08-21T06:34:16;13.50;99.90
9175;DHT22;54374;50.196;8.050;2022-08-21T06:36:44;13.60;99.90
9175;DHT22;54374;50.196;8.050;2022-08-21T06:39:11;13.80;99.90
9175;DHT22;54374;50.196;8.050;2022-08-21T06:41:39;13.90;99.90
9175;DHT22;54374;50.196;8.050;2022-08-21T06:44:06;14.10;99.90
9175;DHT22;54374;50.196;8.050;2022-08-21T06:46:34;14.30;99.90
9175;DHT22;54374;50.196;8.050;2022-08-21T06:49:01;14.40;99.90
9175;DHT22;54374;50.196;8.050;2022-08-21T06:51:28;14.50;99.90
9175;DHT22;54374;50.196;8.050;2022-08-21T06:53:55;14.60;99.90
9175;DHT22;54374;50.196;8.050;2022-08-21T06:56:23;14.80;99.90
9175;DHT22;54374;50.196;8.050;2022-08-21T06:58:50;15.00;99.90
9175;DHT22;54374;50.196;8.050;2022-08-21T07:01:25;15.10;99.90
9175;DHT22;54374;50.196;8.050;2022-08-21T07:03:53;15.30;99.90
9175;DHT22;54374;50.196;8.050;2022-08-21T07:06:21;15.50;99.90
9175;DHT22;54374;50.196;8.050;2022-08-21T07:08:48;15.70;99.90
9175;DHT22;54374;50.196;8.050;2022-08-21T07:11:19;15.90;99.90
9175;DHT22;54374;50.196;8.050;2022-08-21T07:13:46;16.20;99.90
9175;DHT22;54374;50.196;8.050;2022-08-21T07:16:14;16.40;99.90
9175;DHT22;54374;50.196;8.050;2022-08-21T07:18:41;16.60;99.90
9175;DHT22;54374;50.196;8.050;2022-08-21T07:21:09;16.80;99.90
9175;DHT22;54374;50.196;8.050;2022-08-21T07:23:39;16.90;99.90
9175;DHT22;54374;50.196;8.050;2022-08-21T07:26:06;17.10;99.90
9175;DHT22;54374;50.196;8.050;2022-08-21T07:28:34;17.40;99.90
9175;DHT22;54374;50.196;8.050;2022-08-21T07:31:02;17.70;99.90
9175;DHT22;54374;50.196;8.050;2022-08-21T07:33:32;17.90;99.90
9175;DHT22;54374;50.196;8.050;2022-08-21T07:35:59;18.00;99.90
9175;DHT22;54374;50.196;8.050;2022-08-21T07:38:27;18.10;99.90
9175;DHT22;54374;50.196;8.050;2022-08-21T07:40:56;18.30;99.90
9175;DHT22;54374;50.196;8.050;2022-08-21T07:43:25;18.60;99.90
9175;DHT22;54374;50.196;8.050;2022-08-21T07:45:52;18.80;99.90
9175;DHT22;54374;50.196;8.050;2022-08-21T07:48:20;18.90;99.90
9175;DHT22;54374;50.196;8.050;2022-08-21T07:50:47;19.00;99.90
9175;DHT22;54374;50.196;8.050;2022-08-21T07:53:15;19.30;99.90
9175;DHT22;54374;50.196;8.050;2022-08-21T07:55:43;19.60;99.90
9175;DHT22;54374;50.196;8.050;2022-08-21T07:58:10;19.80;99.90
9175;DHT22;54374;50.196;8.050;2022-08-21T08:00:37;20.00;99.90
9175;DHT22;54374;50.196;8.050;2022-08-21T08:03:04;20.20;99.90
9175;DHT22;54374;50.196;8.050;2022-08-21T08:05:32;20.30;99.90
9175;DHT22;54374;50.196;8.050;2022-08-21T08:08:01;20.50;99.90
9175;DHT22;54374;50.196;8.050;2022-08-21T08:10:28;20.60;99.90
9175;DHT22;54374;50.196;8.050;2022-08-21T08:12:56;20.70;99.90
9175;DHT22;54374;50.196;8.050;2022-08-21T08:15:26;20.80;99.90
9175;DHT22;54374;50.196;8.050;2022-08-21T08:17:54;20.90;99.90
9175;DHT22;54374;50.196;8.050;2022-08-21T08:20:23;21.20;99.90
9175;DHT22;54374;50.196;8.050;2022-08-21T08:22:52;21.50;99.90
9175;DHT22;54374;50.196;8.050;2022-08-21T08:25:20;21.60;99.90
9175;DHT22;54374;50.196;8.050;2022-08-21T08:27:47;21.60;99.90
9175;DHT22;54374;50.196;8.050;2022-08-21T08:30:17;21.60;99.90
9175;DHT22;54374;50.196;8.050;2022-08-21T08:32:45;21.60;99.90
9175;DHT22;54374;50.196;8.050;2022-08-21T08:35:13;21.70;99.90
9175;DHT22;54374;50.196;8.050;2022-08-21T08:37:41;21.60;99.90
9175;DHT22;54374;50.196;8.050;2022-08-21T08:40:12;21.70;99.90
9175;DHT22;54374;50.196;8.050;2022-08-21T08:42:40;21.60;99.90
9175;DHT22;54374;50.196;8.050;2022-08-21T08:45:10;21.60;99.90
9175;DHT22;54374;50.196;8.050;2022-08-21T08:47:42;21.60;99.90
9175;DHT22;54374;50.196;8.050;2022-08-21T08:50:13;21.60;99.90
9175;DHT22;54374;50.196;8.050;2022-08-21T08:52:47;21.50;99.90
9175;DHT22;54374;50.196;8.050;2022-08-21T08:55:18;21.60;99.90
9175;DHT22;54374;50.196;8.050;2022-08-21T08:57:47;21.60;99.90
9175;DHT22;54374;50.196;8.050;2022-08-21T09:00:18;21.70;99.90
9175;DHT22;54374;50.196;8.050;2022-08-21T09:02:50;21.60;99.90
9175;DHT22;54374;50.196;8.050;2022-08-21T09:05:25;21.80;99.90
9175;DHT22;54374;50.196;8.050;2022-08-21T09:08:14;21.90;99.90
9175;DHT22;54374;50.196;8.050;2022-08-21T09:10:51;21.90;99.90
9175;DHT22;54374;50.196;8.050;2022-08-21T09:13:29;22.00;99.90
9175;DHT22;54374;50.196;8.050;2022-08-21T09:16:08;22.40;99.90
9175;DHT22;54374;50.196;8.050;2022-08-21T09:18:52;22.30;99.90
9175;DHT22;54374;50.196;8.050;2022-08-21T09:21:27;22.30;99.90
9175;DHT22;54374;50.196;8.050;2022-08-21T09:23:59;22.30;99.90
9175;DHT22;54374;50.196;8.050;2022-08-21T09:26:31;22.10;99.90
9175;DHT22;54374;50.196;8.050;2022-08-21T09:29:02;21.90;99.90
9175;DHT22;54374;50.196;8.050;2022-08-21T09:31:33;21.80;99.90
9175;DHT22;54374;50.196;8.050;2022-08-21T09:34:04;21.80;99.90
9175;DHT22;54374;50.196;8.050;2022-08-21T09:36:37;21.70;99.90
9175;DHT22;54374;50.196;8.050;2022-08-21T09:39:06;21.80;99.90
9175;DHT22;54374;50.196;8.050;2022-08-21T09:41:35;21.80;99.90
9175;DHT22;54374;50.196;8.050;2022-08-21T09:44:03;21.80;99.90
9175;DHT22;54374;50.196;8.050;2022-08-21T09:46:30;21.90;99.90
9175;DHT22;54374;50.196;8.050;2022-08-21T09:49:00;22.10;99.90
9175;DHT22;54374;50.196;8.050;2022-08-21T09:51:31;22.20;99.90
9175;DHT22;54374;50.196;8.050;2022-08-21T09:54:13;22.40;99.90
9175;DHT22;54374;50.196;8.050;2022-08-21T09:56:54;22.60;99.90
9175;DHT22;54374;50.196;8.050;2022-08-21T09:59:40;22.80;99.90
9175;DHT22;54374;50.196;8.050;2022-08-21T10:02:23;22.90;99.80
9175;DHT22;54374;50.196;8.050;2022-08-21T10:04:53;23.00;99.70
9175;DHT22;54374;50.196;8.050;2022-08-21T10:07:23;23.20;98.60
9175;DHT22;54374;50.196;8.050;2022-08-21T10:09:59;23.00;98.50
9175;DHT22;54374;50.196;8.050;2022-08-21T10:12:33;22.90;98.50
9175;DHT22;54374;50.196;8.050;2022-08-21T10:15:09;22.80;98.50
9175;DHT22;54374;50.196;8.050;2022-08-21T10:17:46;22.80;98.70
9175;DHT22;54374;50.196;8.050;2022-08-21T10:20:20;22.70;99.10
9175;DHT22;54374;50.196;8.050;2022-08-21T10:23:01;22.70;99.90
9175;DHT22;54374;50.196;8.050;2022-08-21T10:25:35;22.70;98.80
9175;DHT22;54374;50.196;8.050;2022-08-21T10:28:07;22.60;99.70
9175;DHT22;54374;50.196;8.050;2022-08-21T10:30:50;22.60;99.40
9175;DHT22;54374;50.196;8.050;2022-08-21T10:33:30;22.60;98.50
9175;DHT22;54374;50.196;8.050;2022-08-21T10:36:08;22.80;98.20
9175;DHT22;54374;50.196;8.050;2022-08-21T10:38:55;22.90;98.10
9175;DHT22;54374;50.196;8.050;2022-08-21T10:41:37;23.00;98.00
9175;DHT22;54374;50.196;8.050;2022-08-21T10:44:17;23.20;98.50
9175;DHT22;54374;50.196;8.050;2022-08-21T10:46:52;23.30;98.50
9175;DHT22;54374;50.196;8.050;2022-08-21T10:49:27;23.40;98.40
9175;DHT22;54374;50.196;8.050;2022-08-21T10:52:21;23.40;98.40
9175;DHT22;54374;50.196;8.050;2022-08-21T10:54:56;23.50;98.00
9175;DHT22;54374;50.196;8.050;2022-08-21T10:57:33;23.50;97.30
9175;DHT22;54374;50.196;8.050;2022-08-21T11:00:05;23.50;97.10
9175;DHT22;54374;50.196;8.050;2022-08-21T11:02:38;23.50;97.10
9175;DHT22;54374;50.196;8.050;2022-08-21T11:05:11;23.50;96.80
9175;DHT22;54374;50.196;8.050;2022-08-21T11:07:45;23.50;96.40
9175;DHT22;54374;50.196;8.050;2022-08-21T11:10:18;23.50;96.50
9175;DHT22;54374;50.196;8.050;2022-08-21T11:12:52;23.40;96.50
9175;DHT22;54374;50.196;8.050;2022-08-21T11:15:35;23.30;96.30
9175;DHT22;54374;50.196;8.050;2022-08-21T11:18:18;23.20;96.50
9175;DHT22;54374;50.196;8.050;2022-08-21T11:20:51;23.30;96.50
9175;DHT22;54374;50.196;8.050;2022-08-21T11:23:25;23.30;96.30
9175;DHT22;54374;50.196;8.050;2022-08-21T11:26:00;23.40;96.40
9175;DHT22;54374;50.196;8.050;2022-08-21T11:28:31;23.50;96.30
9175;DHT22;54374;50.196;8.050;2022-08-21T11:31:06;23.60;95.60
9175;DHT22;54374;50.196;8.050;2022-08-21T11:33:59;23.60;95.10
9175;DHT22;54374;50.196;8.050;2022-08-21T11:36:35;23.60;95.00
9175;DHT22;54374;50.196;8.050;2022-08-21T11:39:12;23.70;94.80
9175;DHT22;54374;50.196;8.050;2022-08-21T11:41:47;23.80;94.10
9175;DHT22;54374;50.196;8.050;2022-08-21T11:44:23;24.00;93.60
9175;DHT22;54374;50.196;8.050;2022-08-21T11:46:57;24.00;93.70
9175;DHT22;54374;50.196;8.050;2022-08-21T11:49:38;23.90;93.80
9175;DHT22;54374;50.196;8.050;2022-08-21T11:52:13;23.80;92.30
9175;DHT22;54374;50.196;8.050;2022-08-21T11:54:45;23.80;91.60
9175;DHT22;54374;50.196;8.050;2022-08-21T11:57:20;23.90;92.70
9175;DHT22;54374;50.196;8.050;2022-08-21T11:59:53;24.00;93.30
9175;DHT22;54374;50.196;8.050;2022-08-21T12:02:23;24.10;92.70
9175;DHT22;54374;50.196;8.050;2022-08-21T12:04:54;24.20;92.80
9175;DHT22;54374;50.196;8.050;2022-08-21T12:07:31;24.40;92.20
9175;DHT22;54374;50.196;8.050;2022-08-21T12:10:00;24.50;92.60
9175;DHT22;54374;50.196;8.050;2022-08-21T12:12:32;24.50;92.70
9175;DHT22;54374;50.196;8.050;2022-08-21T12:15:25;24.40;92.90
9175;DHT22;54374;50.196;8.050;2022-08-21T12:18:04;24.30;92.60
9175;DHT22;54374;50.196;8.050;2022-08-21T12:20:42;24.20;92.70
9175;DHT22;54374;50.196;8.050;2022-08-21T12:23:23;24.30;92.60
9175;DHT22;54374;50.196;8.050;2022-08-21T12:26:01;24.40;92.40
9175;DHT22;54374;50.196;8.050;2022-08-21T12:28:31;24.30;92.10
9175;DHT22;54374;50.196;8.050;2022-08-21T12:30:58;24.20;92.10
9175;DHT22;54374;50.196;8.050;2022-08-21T12:33:28;24.20;91.80
9175;DHT22;54374;50.196;8.050;2022-08-21T12:36:04;24.30;91.70
9175;DHT22;54374;50.196;8.050;2022-08-21T12:38:42;24.40;91.50
9175;DHT22;54374;50.196;8.050;2022-08-21T12:41:16;24.50;90.50
9175;DHT22;54374;50.196;8.050;2022-08-21T12:43:48;24.50;89.90
9175;DHT22;54374;50.196;8.050;2022-08-21T12:46:19;24.60;89.30
9175;DHT22;54374;50.196;8.050;2022-08-21T12:48:52;24.70;89.80
9175;DHT22;54374;50.196;8.050;2022-08-21T12:51:24;24.90;88.00
9175;DHT22;54374;50.196;8.050;2022-08-21T12:53:54;25.00;87.70
9175;DHT22;54374;50.196;8.050;2022-08-21T12:56:23;25.00;87.50
9175;DHT22;54374;50.196;8.050;2022-08-21T12:59:10;24.90;89.70
9175;DHT22;54374;50.196;8.050;2022-08-21T13:01:47;25.00;86.80
9175;DHT22;54374;50.196;8.050;2022-08-21T13:04:17;25.20;86.80
9175;DHT22;54374;50.196;8.050;2022-08-21T13:06:48;25.30;86.00
9175;DHT22;54374;50.196;8.050;2022-08-21T13:09:21;25.30;86.30
9175;DHT22;54374;50.196;8.050;2022-08-21T13:11:51;25.30;85.10
9175;DHT22;54374;50.196;8.050;2022-08-21T13:14:28;25.20;86.80
9175;DHT22;54374;50.196;8.050;2022-08-21T13:16:57;25.10;87.00
9175;DHT22;54374;50.196;8.050;2022-08-21T13:19:25;25.20;87.30
9175;DHT22;54374;50.196;8.050;2022-08-21T13:21:53;25.20;87.00
9175;DHT22;54374;50.196;8.050;2022-08-21T13:24:22;25.40;86.60
9175;DHT22;54374;50.196;8.050;2022-08-21T13:26:50;25.40;87.30
9175;DHT22;54374;50.196;8.050;2022-08-21T13:29:19;25.40;84.90
9175;DHT22;54374;50.196;8.050;2022-08-21T13:31:50;25.40;82.90
9175;DHT22;54374;50.196;8.050;2022-08-21T13:34:20;25.40;84.30
9175;DHT22;54374;50.196;8.050;2022-08-21T13:36:48;25.40;83.50
9175;DHT22;54374;50.196;8.050;2022-08-21T13:39:19;25.50;83.30
9175;DHT22;54374;50.196;8.050;2022-08-21T13:41:49;25.60;83.90
9175;DHT22;54374;50.196;8.050;2022-08-21T13:44:21;25.60;83.10
9175;DHT22;54374;50.196;8.050;2022-08-21T13:46:54;25.60;82.10
9175;DHT22;54374;50.196;8.050;2022-08-21T13:49:28;25.40;83.80
9175;DHT22;54374;50.196;8.050;2022-08-21T13:51:57;25.40;83.60
9175;DHT22;54374;50.196;8.050;2022-08-21T13:54:26;25.40;83.30
9175;DHT22;54374;50.196;8.050;2022-08-21T13:56:53;25.50;84.10
9175;DHT22;54374;50.196;8.050;2022-08-21T13:59:27;25.40;82.00
9175;DHT22;54374;50.196;8.050;2022-08-21T14:01:59;25.30;82.70
9175;DHT22;54374;50.196;8.050;2022-08-21T14:04:32;25.40;84.50
9175;DHT22;54374;50.196;8.050;2022-08-21T14:07:01;25.40;84.50
9175;DHT22;54374;50.196;8.050;2022-08-21T14:09:31;25.40;83.90
9175;DHT22;54374;50.196;8.050;2022-08-21T14:12:01;25.30;83.40
9175;DHT22;54374;50.196;8.050;2022-08-21T14:14:31;25.30;83.50
9175;DHT22;54374;50.196;8.050;2022-08-21T14:17:03;25.00;83.50
9175;DHT22;54374;50.196;8.050;2022-08-21T14:19:37;25.00;83.40
9175;DHT22;54374;50.196;8.050;2022-08-21T14:22:27;24.90;84.20
9175;DHT22;54374;50.196;8.050;2022-08-21T14:25:00;24.80;83.20
9175;DHT22;54374;50.196;8.050;2022-08-21T14:27:29;25.00;82.40
9175;DHT22;54374;50.196;8.050;2022-08-21T14:29:59;25.10;83.80
9175;DHT22;54374;50.196;8.050;2022-08-21T14:32:35;25.10;83.30
9175;DHT22;54374;50.196;8.050;2022-08-21T14:35:03;25.00;81.30
9175;DHT22;54374;50.196;8.050;2022-08-21T14:37:31;25.00;81.80
9175;DHT22;54374;50.196;8.050;2022-08-21T14:39:58;25.00;80.70
9175;DHT22;54374;50.196;8.050;2022-08-21T14:42:28;24.90;82.10
9175;DHT22;54374;50.196;8.050;2022-08-21T14:45:01;24.80;84.00
9175;DHT22;54374;50.196;8.050;2022-08-21T14:47:30;24.60;83.50
9175;DHT22;54374;50.196;8.050;2022-08-21T14:49:57;24.50;82.20
9175;DHT22;54374;50.196;8.050;2022-08-21T14:52:24;24.50;81.60
9175;DHT22;54374;50.196;8.050;2022-08-21T14:54:51;24.60;81.10
9175;DHT22;54374;50.196;8.050;2022-08-21T14:57:18;24.80;80.20
9175;DHT22;54374;50.196;8.050;2022-08-21T14:59:45;24.80;81.40
9175;DHT22;54374;50.196;8.050;2022-08-21T15:02:13;24.70;83.00
9175;DHT22;54374;50.196;8.050;2022-08-21T15:04:41;24.50;83.00
9175;DHT22;54374;50.196;8.050;2022-08-21T15:07:08;24.60;80.40
9175;DHT22;54374;50.196;8.050;2022-08-21T15:09:35;24.80;80.10
9175;DHT22;54374;50.196;8.050;2022-08-21T15:12:05;24.80;80.00
9175;DHT22;54374;50.196;8.050;2022-08-21T15:14:36;24.90;79.30
9175;DHT22;54374;50.196;8.050;2022-08-21T15:17:06;24.90;79.90
9175;DHT22;54374;50.196;8.050;2022-08-21T15:19:34;25.00;81.00
9175;DHT22;54374;50.196;8.050;2022-08-21T15:22:03;24.90;80.40
9175;DHT22;54374;50.196;8.050;2022-08-21T15:24:30;25.00;78.70
9175;DHT22;54374;50.196;8.050;2022-08-21T15:27:00;24.80;78.40
9175;DHT22;54374;50.196;8.050;2022-08-21T15:29:29;24.80;78.80
9175;DHT22;54374;50.196;8.050;2022-08-21T15:31:58;24.80;80.20
9175;DHT22;54374;50.196;8.050;2022-08-21T15:34:29;24.70;79.60
9175;DHT22;54374;50.196;8.050;2022-08-21T15:36:57;24.60;77.80
9175;DHT22;54374;50.196;8.050;2022-08-21T15:39:26;24.70;77.20
9175;DHT22;54374;50.196;8.050;2022-08-21T15:41:53;24.80;77.40
9175;DHT22;54374;50.196;8.050;2022-08-21T15:44:27;24.70;80.40
9175;DHT22;54374;50.196;8.050;2022-08-21T15:46:55;24.50;78.10
9175;DHT22;54374;50.196;8.050;2022-08-21T15:49:23;24.50;78.00
9175;DHT22;54374;50.196;8.050;2022-08-21T15:51:50;24.50;77.90
9175;DHT22;54374;50.196;8.050;2022-08-21T15:54:17;24.50;79.00
9175;DHT22;54374;50.196;8.050;2022-08-21T15:56:48;24.50;77.40
9175;DHT22;54374;50.196;8.050;2022-08-21T15:59:18;24.60;77.20
9175;DHT22;54374;50.196;8.050;2022-08-21T16:01:48;24.60;77.00
9175;DHT22;54374;50.196;8.050;2022-08-21T16:04:21;24.70;76.70
9175;DHT22;54374;50.196;8.050;2022-08-21T16:06:49;24.80;75.70